Time;durP1;ratioP1;P1;durP2;ratioP2;P2;SDS_P1;SDS_P2;PMS_P1;PMS_P2;Temp;Humidity;BMP_temperature;BMP_pressure;BME280_temperature;BME280_humidity;BME280_pressure;Samples;Min_cycle;Max_cycle;Signal;HPM_P1;HPM_P2
2023/04/21 00:01:59;;;;;;;21.17;16.43;;;;;;;9.98;87.86;98523.44;5093028;28;41965;-82
2023/04/21 00:04:27;;;;;;;20.50;17.03;;;;;;;9.97;87.96;98519.06;5074460;28;42389;-78
2023/04/21 00:06:55;;;;;;;20.00;17.23;;;;;;;9.80;87.93;98494.66;5075260;28;41582;-78
2023/04/21 00:09:22;;;;;;;19.67;16.10;;;;;;;9.97;88.32;98523.53;5092341;28;41228;-78
2023/04/21 00:11:50;;;;;;;19.93;17.07;;;;;;;9.93;89.13;98525.50;5091697;28;41953;-81
2023/04/21 00:14:17;;;;;;;21.17;17.27;;;;;;;9.93;89.04;98532.59;5074203;28;43528;-80
2023/04/21 00:16:51;;;;;;;21.77;16.23;;;;;;;9.96;88.39;98532.41;5074315;28;40729;-80
2023/04/21 00:19:18;;;;;;;21.80;17.17;;;;;;;9.87;88.38;98527.72;5089723;28;42073;-83
2023/04/21 00:21:46;;;;;;;21.67;17.50;;;;;;;9.90;88.13;98540.72;5074683;28;40743;-83
2023/04/21 00:24:14;;;;;;;18.50;16.50;;;;;;;9.93;88.16;98549.31;5092186;28;42956;-84
2023/04/21 00:26:41;;;;;;;21.43;18.10;;;;;;;9.95;87.83;98546.56;5092526;28;42299;-80
2023/04/21 00:29:09;;;;;;;19.97;16.53;;;;;;;9.95;88.04;98538.63;5091058;28;40344;-79
2023/04/21 00:31:36;;;;;;;21.97;17.83;;;;;;;9.87;87.88;98528.56;5090146;28;42823;-84
2023/04/21 00:34:07;;;;;;;23.53;17.13;;;;;;;9.96;87.66;98542.97;5073989;28;42733;-80
2023/04/21 00:36:34;;;;;;;20.70;17.23;;;;;;;9.94;87.64;98539.59;5074218;28;41217;-82
2023/04/21 00:39:02;;;;;;;20.70;16.90;;;;;;;9.88;87.16;98529.41;5073602;28;41023;-79
2023/04/21 00:41:30;;;;;;;18.13;15.70;;;;;;;9.98;86.83;98552.53;5091216;28;41806;-82
2023/04/21 00:44:02;;;;;;;17.03;14.47;;;;;;;10.00;86.32;98549.78;5091092;28;42602;-82
2023/04/21 00:46:33;;;;;;;18.57;14.43;;;;;;;10.03;86.32;98557.50;5074464;28;42420;-78
2023/04/21 00:49:03;;;;;;;15.73;13.03;;;;;;;10.07;86.03;98564.28;5091014;28;40694;-79
2023/04/21 00:51:33;;;;;;;14.53;13.00;;;;;;;10.05;85.72;98555.59;5073953;28;40759;-83
2023/04/21 00:54:03;;;;;;;22.90;17.63;;;;;;;10.02;85.55;98559.28;5073871;28;42009;-81
2023/04/21 00:56:33;;;;;;;18.60;14.73;;;;;;;10.12;85.45;98577.25;5090926;28;43193;-82
2023/04/21 00:59:02;;;;;;;15.33;12.97;;;;;;;10.16;85.26;98570.78;5091099;28;40710;-83
2023/04/21 01:01:30;;;;;;;14.03;12.40;;;;;;;10.17;85.05;98569.81;5073800;28;41972;-76
2023/04/21 01:04:01;;;;;;;17.53;13.80;;;;;;;10.22;85.01;98565.97;5073841;28;42118;-79
2023/04/21 01:06:32;;;;;;;15.93;13.50;;;;;;;10.24;84.79;98566.72;5073446;28;43570;-81
2023/04/21 01:09:03;;;;;;;16.23;14.33;;;;;;;10.26;84.61;98567.44;5073673;28;39718;-83
2023/04/21 01:11:31;;;;;;;17.33;14.63;;;;;;;10.23;84.46;98557.09;5087862;28;42148;-78
2023/04/21 01:13:59;;;;;;;15.17;12.00;;;;;;;10.25;84.22;98555.19;5090742;28;43825;-81
2023/04/21 01:16:27;;;;;;;15.63;13.30;;;;;;;10.32;84.00;98566.22;5089822;28;42314;-82
2023/04/21 01:18:55;;;;;;;14.37;12.33;;;;;;;10.33;83.89;98560.81;5090625;28;41020;-81
2023/04/21 01:21:23;;;;;;;17.73;14.83;;;;;;;10.26;83.98;98556.88;5073318;28;40601;-81
2023/04/21 01:23:52;;;;;;;16.43;14.73;;;;;;;10.25;83.86;98557.00;5073839;28;42108;-81
2023/04/21 01:26:20;;;;;;;16.20;13.83;;;;;;;10.12;84.25;98543.69;5090069;28;41313;-79
2023/04/21 01:28:48;;;;;;;17.50;14.70;;;;;;;10.21;83.93;98564.28;5073861;28;40105;-78
2023/04/21 01:31:16;;;;;;;18.10;15.40;;;;;;;10.20;84.10;98567.03;5073283;28;40643;-83
2023/04/21 01:33:44;;;;;;;17.33;14.20;;;;;;;10.20;84.45;98573.16;5073359;28;41623;-80
2023/04/21 01:36:12;;;;;;;20.03;15.67;;;;;;;10.21;84.05;98580.16;5073066;28;41461;-79
2023/04/21 01:38:41;;;;;;;19.33;16.33;;;;;;;10.20;84.06;98562.56;5073287;28;40184;-82
2023/04/21 01:41:10;;;;;;;17.13;14.73;;;;;;;10.19;84.26;98566.16;5091125;28;41567;-78
2023/04/21 01:43:38;;;;;;;19.60;16.53;;;;;;;10.03;83.97;98544.25;5077148;28;41774;-82
2023/04/21 01:46:07;;;;;;;17.23;14.90;;;;;;;10.07;83.53;98545.78;5076471;28;42371;-79
2023/04/21 01:48:36;;;;;;;17.00;13.77;;;;;;;10.17;83.79;98567.19;5094839;28;40982;-81
2023/04/21 01:51:04;;;;;;;17.93;13.97;;;;;;;10.15;83.69;98575.22;5093268;28;42567;-78
2023/04/21 01:53:32;;;;;;;15.37;12.20;;;;;;;10.16;83.54;98568.97;5076572;28;41923;-83
2023/04/21 01:56:02;;;;;;;16.50;13.03;;;;;;;10.11;83.20;98562.31;5076307;28;41388;-81
2023/04/21 01:58:33;;;;;;;12.83;11.03;;;;;;;10.11;82.85;98557.88;5076462;28;40337;-83
2023/04/21 02:01:00;;;;;;;14.27;12.20;;;;;;;10.20;82.88;98573.16;5093721;28;42706;-80
2023/04/21 02:03:28;;;;;;;15.83;12.70;;;;;;;10.23;82.65;98580.91;5093587;28;42909;-80
2023/04/21 02:05:55;;;;;;;13.67;11.37;;;;;;;10.24;82.79;98569.38;5076694;28;41671;-79
2023/04/21 02:08:23;;;;;;;16.13;12.47;;;;;;;10.15;82.51;98559.34;5094155;28;40941;-78
2023/04/21 02:10:51;;;;;;;14.10;11.93;;;;;;;10.24;82.74;98569.38;5093165;28;41825;-80
2023/04/21 02:13:19;;;;;;;15.23;11.90;;;;;;;10.22;82.69;98565.97;5092860;28;42837;-77
2023/04/21 02:15:48;;;;;;;16.00;12.00;;;;;;;10.21;82.80;98568.72;5092769;28;42182;-82
2023/04/21 02:18:16;;;;;;;14.10;11.87;;;;;;;10.21;82.40;98566.94;5092650;28;40935;-82
2023/04/21 02:20:45;;;;;;;14.93;12.30;;;;;;;10.21;82.47;98563.44;5075961;28;40722;-78
2023/04/21 02:23:14;;;;;;;13.73;11.87;;;;;;;10.20;82.38;98565.22;5075829;28;42721;-77
2023/04/21 02:25:42;;;;;;;14.47;12.87;;;;;;;10.18;82.18;98569.75;5093390;28;42411;-80
2023/04/21 02:28:10;;;;;;;13.40;11.73;;;;;;;10.23;82.12;98583.56;5092896;28;41042;-80
2023/04/21 02:30:37;;;;;;;13.17;11.77;;;;;;;10.23;81.96;98574.78;5076222;28;41020;-77
2023/04/21 02:33:07;;;;;;;13.10;10.67;;;;;;;10.20;82.17;98567.88;5092703;28;42419;-81
2023/04/21 02:35:34;;;;;;;14.43;12.40;;;;;;;10.26;82.08;98578.03;5093027;28;42248;-78
2023/04/21 02:38:06;;;;;;;14.80;13.00;;;;;;;10.19;82.04;98566.16;5075749;28;39622;-81
2023/04/21 02:40:33;;;;;;;15.23;12.40;;;;;;;10.29;82.02;98569.91;5090041;28;41561;-79
2023/04/21 02:43:01;;;;;;;15.50;12.40;;;;;;;10.30;82.25;98568.97;5075502;28;41675;-81
2023/04/21 02:45:29;;;;;;;16.70;13.50;;;;;;;10.26;81.81;98566.63;5075917;28;41098;-81
2023/04/21 02:47:58;;;;;;;15.10;12.77;;;;;;;10.31;81.85;98569.81;5092624;28;40989;-80
2023/04/21 02:50:27;;;;;;;13.73;10.80;;;;;;;10.33;81.82;98571.41;5092758;28;41716;-83
2023/04/21 02:52:55;;;;;;;14.90;11.73;;;;;;;10.34;81.61;98570.47;5074585;28;41690;-77
2023/04/21 02:55:23;;;;;;;14.77;12.53;;;;;;;10.36;81.49;98573.00;5075693;28;41357;-81
2023/04/21 02:57:51;;;;;;;12.13;10.53;;;;;;;10.37;81.22;98575.56;5092256;28;41302;-80
2023/04/21 03:00:19;;;;;;;13.37;11.93;;;;;;;10.31;81.23;98560.06;5092128;28;41966;-83
2023/04/21 03:02:47;;;;;;;14.37;11.20;;;;;;;10.38;81.48;98573.75;5075150;28;41807;-80
2023/04/21 03:05:17;;;;;;;15.47;12.43;;;;;;;10.12;81.32;98521.69;5091856;28;41511;-78
2023/04/21 03:07:47;;;;;;;13.80;11.47;;;;;;;10.41;81.14;98565.59;5074966;28;42886;-78
2023/04/21 03:10:14;;;;;;;12.10;10.30;;;;;;;10.41;81.19;98571.75;5074484;28;41912;-77
2023/04/21 03:12:42;;;;;;;13.43;11.63;;;;;;;10.41;81.33;98571.75;5074517;28;41886;-79
2023/04/21 03:15:10;;;;;;;12.60;10.90;;;;;;;10.41;81.32;98574.38;5075650;28;41387;-81
2023/04/21 03:17:38;;;;;;;13.63;11.33;;;;;;;10.42;80.88;98568.16;5075811;28;41218;-82
2023/04/21 03:20:07;;;;;;;13.43;11.10;;;;;;;10.26;80.94;98541.00;5076156;28;43548;-81
2023/04/21 03:22:35;;;;;;;14.40;11.67;;;;;;;10.32;81.08;98547.69;5075895;28;43014;-79
2023/04/21 03:25:06;;;;;;;14.17;11.87;;;;;;;10.43;81.01;98558.41;5092953;28;42427;-80
2023/04/21 03:27:34;;;;;;;15.07;12.87;;;;;;;10.42;81.17;98562.84;5076131;28;41014;-78
2023/04/21 03:30:01;;;;;;;14.00;12.17;;;;;;;10.42;81.24;98562.84;5075986;28;40848;-81
2023/04/21 03:32:30;;;;;;;12.23;10.93;;;;;;;10.44;80.97;98563.59;5074756;28;41813;-79
2023/04/21 03:34:57;;;;;;;15.70;12.83;;;;;;;10.47;81.18;98567.00;5074700;28;41183;-80
2023/04/21 03:37:25;;;;;;;14.47;12.17;;;;;;;10.38;81.36;98556.09;5091807;28;40698;-81
2023/04/21 03:39:53;;;;;;;14.97;12.10;;;;;;;10.47;80.93;98561.72;5074792;28;41061;-79
2023/04/21 03:42:22;;;;;;;15.43;12.53;;;;;;;10.47;81.42;98561.72;5074648;28;43060;-82
2023/04/21 03:44:53;;;;;;;15.97;12.87;;;;;;;10.33;81.58;98537.00;5092005;28;42211;-80
2023/04/21 03:47:21;;;;;;;17.03;13.53;;;;;;;10.47;81.40;98559.06;5074950;28;39891;-77
2023/04/21 03:49:48;;;;;;;17.60;14.13;;;;;;;10.47;81.87;98554.63;5086510;28;42676;-80
2023/04/21 03:52:16;;;;;;;19.13;15.10;;;;;;;10.44;83.03;98538.94;5089136;28;43571;-83
2023/04/21 03:54:44;;;;;;;18.10;14.27;;;;;;;10.35;82.53;98540.41;5074614;28;42605;-79
2023/04/21 03:57:12;;;;;;;17.20;15.20;;;;;;;10.36;82.68;98547.41;5073827;28;42332;-83
2023/04/21 03:59:41;;;;;;;17.90;15.20;;;;;;;10.39;82.83;98547.16;5074267;28;41557;-79
2023/04/21 04:02:09;;;;;;;15.23;12.63;;;;;;;10.41;82.42;98555.84;5070554;28;45146;-80
2023/04/21 04:04:37;;;;;;;15.00;12.80;;;;;;;10.42;82.39;98562.84;5091352;28;42303;-78
2023/04/21 04:07:06;;;;;;;14.60;12.53;;;;;;;10.44;82.16;98560.97;5090365;28;41491;-79
2023/04/21 04:09:33;;;;;;;14.87;12.50;;;;;;;10.49;81.88;98565.09;5091151;28;43402;-82
2023/04/21 04:12:02;;;;;;;14.57;12.03;;;;;;;10.50;81.85;98558.88;5090753;28;43703;-78
2023/04/21 04:14:29;;;;;;;12.83;11.13;;;;;;;10.52;81.88;98554.28;5074099;28;41141;-80
2023/04/21 04:16:59;;;;;;;15.80;12.90;;;;;;;10.49;81.84;98536.84;5090256;28;41325;-78
2023/04/21 04:19:30;;;;;;;17.00;13.73;;;;;;;10.20;82.11;98498.22;5092307;28;41633;-81
2023/04/21 04:21:59;;;;;;;17.80;13.60;;;;;;;10.34;82.03;98538.69;5089492;28;42776;-79
2023/04/21 04:24:27;;;;;;;14.17;12.10;;;;;;;10.38;82.17;98539.34;5073947;28;42362;-80
2023/04/21 04:26:56;;;;;;;15.27;12.87;;;;;;;10.36;82.22;98530.66;5069772;28;40350;-82
2023/04/21 04:29:24;;;;;;;17.30;13.83;;;;;;;10.33;81.90;98537.00;5070539;28;41699;-84
2023/04/21 04:31:52;;;;;;;16.83;14.63;;;;;;;10.32;82.29;98535.31;5069703;28;41505;-77
2023/04/21 04:34:22;;;;;;;18.50;15.30;;;;;;;10.33;82.66;98537.00;5090858;28;43195;-81
2023/04/21 04:36:50;;;;;;;16.53;13.87;;;;;;;10.35;82.48;98543.06;5069938;28;39643;-82
2023/04/21 04:39:17;;;;;;;17.80;14.77;;;;;;;10.36;82.63;98531.50;5087261;28;42718;-82
2023/04/21 04:41:45;;;;;;;18.67;14.80;;;;;;;10.41;82.69;98523.25;5065734;28;42922;-86
2023/04/21 04:44:15;;;;;;;19.03;14.93;;;;;;;10.36;83.09;98514.78;5070839;28;43336;-83
2023/04/21 04:46:44;;;;;;;18.00;15.27;;;;;;;10.48;82.71;98526.34;5085783;28;41054;-82
2023/04/21 04:49:11;;;;;;;19.50;16.60;;;;;;;10.53;82.71;98532.16;5091638;28;42143;-83
2023/04/21 04:51:40;;;;;;;18.17;14.07;;;;;;;10.61;82.76;98536.00;5089992;28;41770;-81
2023/04/21 04:54:08;;;;;;;19.07;15.73;;;;;;;10.70;82.47;98540.66;5073505;28;40954;-83
2023/04/21 04:56:36;;;;;;;16.53;13.37;;;;;;;10.73;82.20;98527.22;5089949;28;40958;-87
2023/04/21 04:59:03;;;;;;;17.93;14.60;;;;;;;10.78;81.73;98516.28;5073202;28;41784;-82
2023/04/21 05:01:31;;;;;;;15.67;13.20;;;;;;;10.94;81.34;98532.84;5089759;28;43051;-81
2023/04/21 05:03:59;;;;;;;18.13;14.83;;;;;;;11.01;81.15;98534.09;5073638;28;41241;-80
2023/04/21 05:06:27;;;;;;;15.73;13.17;;;;;;;11.07;81.25;98536.34;5089878;28;41196;-81
2023/04/21 05:08:56;;;;;;;14.37;12.87;;;;;;;11.25;80.74;98541.31;5091910;28;42671;-82
2023/04/21 05:11:24;;;;;;;14.23;12.27;;;;;;;11.38;80.43;98547.41;5089927;28;42857;-83
2023/04/21 05:13:51;;;;;;;17.27;14.43;;;;;;;11.51;80.59;98542.94;5090661;28;42160;-77
2023/04/21 05:16:19;;;;;;;16.83;14.30;;;;;;;11.57;80.45;98531.06;5089993;28;42029;-82
2023/04/21 05:18:49;;;;;;;18.17;14.43;;;;;;;11.74;79.89;98541.31;5077117;28;40840;-83
2023/04/21 05:21:23;;;;;;;16.90;14.43;;;;;;;11.85;79.98;98546.72;5092799;28;43339;-85
2023/04/21 05:23:50;;;;;;;15.77;14.13;;;;;;;11.93;79.62;98539.06;5077393;28;41471;-86
2023/04/21 05:26:19;;;;;;;16.17;14.20;;;;;;;12.02;79.49;98537.53;5093329;28;41278;-82
2023/04/21 05:28:47;;;;;;;18.00;14.67;;;;;;;12.09;79.60;98534.31;5093759;28;40577;-82
2023/04/21 05:31:16;;;;;;;19.53;16.43;;;;;;;12.15;79.60;98527.69;5092748;28;43743;-78
2023/04/21 05:33:43;;;;;;;21.67;16.73;;;;;;;12.15;79.23;98517.94;5075041;28;40951;-85
2023/04/21 05:36:12;;;;;;;20.40;17.13;;;;;;;12.23;79.27;98526.19;5076312;28;40125;-85
2023/04/21 05:38:39;;;;;;;21.60;18.00;;;;;;;12.27;78.91;98525.94;5093549;28;41310;-83
2023/04/21 05:41:07;;;;;;;22.53;18.97;;;;;;;12.22;78.08;98551.03;5094569;28;42779;-87
2023/04/21 05:43:37;;;;;;;23.13;18.57;;;;;;;12.10;78.38;98562.56;5076550;28;41031;-80
2023/04/21 05:46:09;;;;;;;21.30;17.67;;;;;;;12.05;78.66;98577.97;5076810;28;40767;-79
2023/04/21 05:48:37;;;;;;;18.97;15.97;;;;;;;12.04;78.94;98583.38;5093845;28;40843;-85
2023/04/21 05:51:09;;;;;;;20.97;17.23;;;;;;;12.04;78.73;98583.38;5086059;28;43524;-81
2023/04/21 05:53:37;;;;;;;22.83;18.00;;;;;;;12.06;78.77;98592.09;5092490;28;41271;-82
2023/04/21 05:56:06;;;;;;;20.30;16.33;;;;;;;12.14;78.77;98587.91;5092108;28;40998;-81
2023/04/21 05:58:34;;;;;;;21.03;16.57;;;;;;;12.06;78.51;98571.69;5076109;28;40736;-80
2023/04/21 06:01:05;;;;;;;21.27;18.73;;;;;;;12.24;78.46;98596.03;5092636;28;42855;-81
2023/04/21 06:03:32;;;;;;;21.67;18.07;;;;;;;12.19;78.74;98584.91;5093266;28;41865;-78
2023/04/21 06:06:01;;;;;;;19.60;16.67;;;;;;;12.29;78.73;98593.91;5092477;28;40520;-84
2023/04/21 06:08:29;;;;;;;26.47;20.33;;;;;;;12.36;78.17;98592.50;5093095;28;40641;-80
2023/04/21 06:10:57;;;;;;;17.03;14.93;;;;;;;12.42;78.28;98589.38;5075073;28;42085;-81
2023/04/21 06:13:26;;;;;;;18.93;15.33;;;;;;;12.49;78.13;98595.06;5093059;28;42341;-79
2023/04/21 06:15:54;;;;;;;20.60;16.63;;;;;;;12.50;78.02;98594.09;5092174;28;41201;-81
2023/04/21 06:18:24;;;;;;;19.07;16.03;;;;;;;12.49;77.90;98587.94;5092595;28;41527;-81
2023/04/21 06:20:52;;;;;;;18.17;15.50;;;;;;;12.41;77.69;98566.44;5075182;28;43044;-78
2023/04/21 06:23:20;;;;;;;19.47;16.43;;;;;;;12.53;77.48;98580.59;5092436;28;42336;-80
2023/04/21 06:25:48;;;;;;;22.97;18.07;;;;;;;12.59;77.20;98588.13;5075439;28;40310;-82
2023/04/21 06:28:16;;;;;;;19.13;16.13;;;;;;;12.64;77.23;98591.28;5092347;28;42179;-80
2023/04/21 06:30:44;;;;;;;16.97;14.40;;;;;;;12.70;76.79;98579.34;5075499;28;41571;-82
2023/04/21 06:33:12;;;;;;;16.30;14.57;;;;;;;12.83;77.17;98582.78;5075471;28;41871;-83
2023/04/21 06:35:41;;;;;;;19.23;15.20;;;;;;;12.88;76.89;98564.66;5075286;28;40911;-78
2023/04/21 06:38:09;;;;;;;17.70;14.30;;;;;;;13.12;76.73;98578.72;5092011;28;40815;-82
2023/04/21 06:40:36;;;;;;;18.73;15.80;;;;;;;13.26;76.45;98575.88;5075180;28;41411;-82
2023/04/21 06:43:03;;;;;;;22.13;17.37;;;;;;;13.41;75.80;98572.97;5075141;28;41104;-80
2023/04/21 06:45:31;;;;;;;19.17;15.77;;;;;;;13.51;74.66;98569.47;5075940;28;39636;-82
2023/04/21 06:47:58;;;;;;;17.93;15.40;;;;;;;13.68;74.68;98568.13;5071637;28;41629;-77
2023/04/21 06:50:26;;;;;;;19.73;16.33;;;;;;;13.83;74.46;98564.25;5071964;28;41800;-83
2023/04/21 06:52:56;;;;;;;19.23;16.83;;;;;;;13.99;73.99;98570.03;5108038;28;43670;-78
2023/04/21 06:55:24;;;;;;;18.00;15.10;;;;;;;14.15;74.18;98574.09;5092347;28;41043;-82
2023/04/21 06:57:51;;;;;;;18.87;16.90;;;;;;;14.26;73.69;98560.75;5091808;28;41704;-84
2023/04/21 07:00:19;;;;;;;21.43;17.80;;;;;;;14.47;73.31;98563.47;5092098;28;41684;-84
2023/04/21 07:02:47;;;;;;;21.43;18.57;;;;;;;14.66;72.64;98553.84;5071101;28;41264;-84
2023/04/21 07:05:15;;;;;;;21.00;18.07;;;;;;;14.88;71.96;98541.34;5072188;28;41482;-77
2023/04/21 07:07:42;;;;;;;20.87;18.67;;;;;;;15.30;71.26;98569.69;5074694;28;41002;-81
2023/04/21 07:10:17;;;;;;;22.43;19.30;;;;;;;15.59;69.49;98574.34;5091609;28;43720;-81
2023/04/21 07:12:45;;;;;;;20.83;17.77;;;;;;;15.73;66.32;98576.66;5090960;28;42575;-78
2023/04/21 07:15:13;;;;;;;19.37;17.30;;;;;;;15.84;67.19;98567.69;5090947;28;40327;-75
2023/04/21 07:17:40;;;;;;;19.70;16.37;;;;;;;15.86;67.80;98550.56;5073877;28;40664;-76
2023/04/21 07:20:09;;;;;;;18.27;15.87;;;;;;;16.08;67.12;98561.00;5074477;28;42100;-78
2023/04/21 07:22:37;;;;;;;21.83;16.80;;;;;;;16.29;66.68;98578.78;5091906;28;42672;-77
2023/04/21 07:25:06;;;;;;;19.13;16.77;;;;;;;16.45;64.76;98576.38;5097627;28;41580;-78
2023/04/21 07:27:36;;;;;;;16.47;14.63;;;;;;;16.52;65.21;98567.69;5095418;28;40749;-76
2023/04/21 07:30:04;;;;;;;19.17;15.97;;;;;;;16.45;63.21;98579.91;5093096;28;44070;-75
2023/04/21 07:32:32;;;;;;;18.43;16.23;;;;;;;16.42;63.98;98579.34;5096050;28;42371;-76
2023/04/21 07:35:00;;;;;;;18.93;16.47;;;;;;;16.36;63.32;98579.91;5096045;28;41197;-77
2023/04/21 07:37:28;;;;;;;18.63;16.60;;;;;;;16.90;62.26;98579.38;5073654;28;41048;-76
2023/04/21 07:39:55;;;;;;;16.33;14.63;;;;;;;17.53;62.21;98582.34;5070527;28;41778;-78
2023/04/21 07:42:25;;;;;;;21.10;16.80;;;;;;;18.09;61.17;98590.28;5085360;28;42780;-80
2023/04/21 07:44:56;;;;;;;17.93;16.03;;;;;;;18.66;59.41;98609.72;5090981;28;40039;-79
2023/04/21 07:47:24;;;;;;;18.33;16.43;;;;;;;19.69;56.13;98615.22;5090813;28;40983;-79
2023/04/21 07:49:51;;;;;;;17.93;15.73;;;;;;;20.76;54.62;98620.03;5091446;28;42734;-78
2023/04/21 07:52:19;;;;;;;16.83;15.20;;;;;;;21.23;51.42;98635.56;5069741;28;42702;-75
2023/04/21 07:54:46;;;;;;;15.43;13.63;;;;;;;21.39;50.41;98640.94;5070558;28;41063;-77
2023/04/21 07:57:14;;;;;;;16.50;14.77;;;;;;;21.29;50.00;98645.66;5085184;28;42561;-79
2023/04/21 07:59:42;;;;;;;14.07;12.60;;;;;;;21.08;49.58;98638.06;5091202;28;44128;-78
2023/04/21 08:02:11;;;;;;;15.93;14.37;;;;;;;21.84;47.60;98654.69;5089898;28;43098;-79
2023/04/21 08:04:39;;;;;;;15.17;13.73;;;;;;;22.44;49.13;98634.44;5090968;28;41058;-78
2023/04/21 08:07:08;;;;;;;15.33;13.77;;;;;;;22.48;46.90;98658.22;5089363;28;41470;-78
2023/04/21 08:09:36;;;;;;;15.37;13.90;;;;;;;23.35;45.71;98655.31;5124421;27;42739;-82
2023/04/21 08:12:04;;;;;;;14.97;13.47;;;;;;;23.03;45.74;98650.97;5089927;28;43781;-76
2023/04/21 08:14:32;;;;;;;14.87;13.37;;;;;;;22.66;45.80;98652.53;5074152;28;40521;-80
2023/04/21 08:17:00;;;;;;;14.70;13.20;;;;;;;22.36;45.88;98651.53;5090275;28;41687;-80
2023/04/21 08:19:29;;;;;;;14.33;12.87;;;;;;;21.93;46.15;98646.56;5074055;28;41519;-80
2023/04/21 08:21:57;;;;;;;15.60;14.00;;;;;;;21.96;46.88;98646.25;5089999;28;42372;-79
2023/04/21 08:24:25;;;;;;;15.57;13.47;;;;;;;22.50;44.85;98650.75;5073208;28;39758;-77
2023/04/21 08:26:53;;;;;;;15.17;13.57;;;;;;;22.61;45.34;98646.00;5089619;28;41754;-79
2023/04/21 08:29:20;;;;;;;14.97;13.53;;;;;;;22.99;45.24;98638.88;5091721;28;42674;-82
2023/04/21 08:31:48;;;;;;;14.50;13.00;;;;;;;23.10;43.16;98655.50;5090817;28;42709;-80
2023/04/21 08:34:15;;;;;;;14.93;12.23;;;;;;;23.42;43.92;98648.97;5073277;28;40844;-77
2023/04/21 08:36:46;;;;;;;14.73;13.27;;;;;;;24.00;43.08;98640.13;5090950;28;42220;-78
2023/04/21 08:39:15;;;;;;;14.57;13.07;;;;;;;24.28;41.78;98647.63;5088336;28;42742;-78
2023/04/21 08:41:43;;;;;;;14.10;12.77;;;;;;;25.63;42.23;98637.84;5089653;28;42360;-77
2023/04/21 08:44:11;;;;;;;14.60;12.93;;;;;;;26.01;38.03;98679.03;5091599;28;41106;-78
2023/04/21 08:46:40;;;;;;;14.17;12.67;;;;;;;26.64;38.24;98663.50;5069078;28;43946;-77
2023/04/21 08:49:10;;;;;;;12.93;11.63;;;;;;;26.83;38.73;98658.13;5070103;28;42717;-80
2023/04/21 08:51:37;;;;;;;13.47;12.27;;;;;;;27.42;36.27;98686.53;5077349;28;43840;-78
2023/04/21 08:54:08;;;;;;;11.83;10.63;;;;;;;26.28;35.99;98680.91;5091778;28;41636;-77
2023/04/21 08:56:35;;;;;;;10.97;10.00;;;;;;;25.51;37.19;98669.22;5089681;28;41869;-76
2023/04/21 08:59:03;;;;;;;11.97;10.83;;;;;;;25.11;38.63;98655.28;5090469;28;43068;-80
2023/04/21 09:01:31;;;;;;;12.30;11.10;;;;;;;24.93;37.77;98669.28;5072107;28;42712;-80
2023/04/21 09:04:16;;;;;;;12.87;11.67;;;;;;;25.74;36.25;98677.97;5091531;28;40947;-78
2023/04/21 09:06:44;;;;;;;10.83;9.73;;;;;;;27.23;36.30;98674.56;5087179;28;41903;-79
2023/04/21 09:09:14;;;;;;;11.70;10.53;;;;;;;28.17;34.89;98663.50;5072979;28;43273;-76
2023/04/21 09:11:41;;;;;;;11.37;10.27;;;;;;;27.43;33.83;98691.78;5089214;28;42221;-77
2023/04/21 09:14:11;;;;;;;12.13;11.03;;;;;;;26.51;35.07;98680.59;5089786;28;41178;-77
2023/04/21 09:16:39;;;;;;;12.17;10.97;;;;;;;25.49;35.67;98679.41;5089127;28;40958;-79
2023/04/21 09:19:15;;;;;;;11.13;10.13;;;;;;;24.96;37.24;98668.06;5089732;28;42985;-78
2023/04/21 09:21:44;;;;;;;11.67;10.50;;;;;;;24.58;38.83;98651.13;5088300;28;42283;-78
2023/04/21 09:24:13;;;;;;;11.93;10.60;;;;;;;24.24;39.79;98647.16;5089547;28;41053;-77
2023/04/21 09:26:42;;;;;;;11.93;10.73;;;;;;;23.93;40.50;98638.38;5089215;28;42307;-78
2023/04/21 09:29:10;;;;;;;13.13;11.70;;;;;;;23.55;39.98;98634.88;5089659;28;42913;-87
2023/04/21 09:31:38;;;;;;;11.20;10.10;;;;;;;23.52;41.75;98629.81;5089529;28;41703;-82
2023/04/21 09:34:18;;;;;;;13.13;11.83;;;;;;;23.37;40.68;98634.34;5073526;28;42188;-86
2023/04/21 09:36:46;;;;;;;11.93;10.80;;;;;;;23.33;41.09;98633.03;5072727;28;40442;-82
2023/04/21 09:39:15;;;;;;;12.17;10.70;;;;;;;23.32;41.44;98607.03;5090033;28;41598;-80
2023/04/21 09:41:44;;;;;;;11.97;10.77;;;;;;;23.33;41.10;98633.03;5089395;28;41355;-80
2023/04/21 09:44:12;;;;;;;16.93;11.40;;;;;;;22.98;41.36;98639.91;5090990;28;41766;-81
2023/04/21 09:46:43;;;;;;;12.93;10.80;;;;;;;22.77;41.94;98635.13;5090555;28;42388;-81
2023/04/21 09:49:13;;;;;;;11.50;10.07;;;;;;;22.44;41.59;98619.09;5087086;28;43138;-82
2023/04/21 09:51:43;;;;;;;12.83;9.83;;;;;;;22.48;42.60;98625.00;5089870;28;43335;-80
2023/04/21 09:54:17;;;;;;;10.93;9.63;;;;;;;22.72;42.08;98605.94;5090370;28;41186;-81
2023/04/21 09:56:50;;;;;;;9.73;8.40;;;;;;;23.15;42.39;98599.03;5069034;28;40593;-80
2023/04/21 09:59:20;;;;;;;10.10;9.13;;;;;;;23.64;39.79;98631.06;5067517;28;43073;-85
2023/04/21 10:01:49;;;;;;;9.40;8.50;;;;;;;23.80;39.17;98625.50;5061842;28;41497;-78
2023/04/21 10:04:18;;;;;;;9.97;8.97;;;;;;;24.12;38.14;98637.78;5093558;28;41689;-77
2023/04/21 10:06:47;;;;;;;8.83;7.97;;;;;;;24.55;38.32;98633.41;5092929;28;42082;-77
2023/04/21 10:09:21;;;;;;;9.80;8.80;;;;;;;24.75;37.40;98639.03;5093515;28;43610;-77
2023/04/21 10:11:48;;;;;;;9.03;8.13;;;;;;;24.60;37.09;98635.53;5091050;28;43215;-77
2023/04/21 10:14:16;;;;;;;8.37;7.57;;;;;;;24.13;37.04;98627.81;5093535;28;41842;-84
2023/04/21 10:16:44;;;;;;;8.40;7.60;;;;;;;23.99;37.45;98621.38;5074323;28;42084;-78
2023/04/21 10:19:24;;;;;;;9.10;8.30;;;;;;;24.33;38.37;98623.56;5092715;28;42718;-80
2023/04/21 10:21:55;;;;;;;8.37;7.63;;;;;;;24.50;36.96;98630.41;5089593;28;42505;-78
2023/04/21 10:24:28;;;;;;;10.70;9.60;;;;;;;24.97;36.73;98634.53;5075289;28;40087;-78
2023/04/21 10:27:00;;;;;;;9.93;8.37;;;;;;;25.30;36.32;98627.53;5123987;27;41736;-78
2023/04/21 10:29:33;;;;;;;9.23;8.33;;;;;;;25.97;35.96;98624.28;5090363;28;43589;-81
2023/04/21 10:32:01;;;;;;;9.37;7.43;;;;;;;27.69;33.71;98652.91;5091501;28;42507;-77
2023/04/21 10:34:36;;;;;;;10.13;9.07;;;;;;;28.34;31.94;98655.72;5091797;28;40171;-78
2023/04/21 10:37:18;;;;;;;9.93;8.93;;;;;;;29.18;31.51;98652.81;5091347;28;42266;-79
2023/04/21 10:39:53;;;;;;;9.93;9.00;;;;;;;28.76;31.31;98622.44;5092312;28;41630;-86
2023/04/21 10:42:26;;;;;;;9.77;8.93;;;;;;;28.92;31.31;98637.47;5091398;28;42281;-82
2023/04/21 10:45:02;;;;;;;9.53;8.63;;;;;;;28.81;31.50;98636.25;5089580;28;41238;-80
2023/04/21 10:47:37;;;;;;;8.43;7.63;;;;;;;28.78;33.42;98622.22;5074969;28;42216;-81
2023/04/21 10:50:13;;;;;;;9.40;8.60;;;;;;;29.36;32.32;98622.91;5090070;28;43970;-84
2023/04/21 10:52:44;;;;;;;9.40;8.60;;;;;;;30.41;30.15;98631.19;5107638;27;42043;-83
2023/04/21 10:55:15;;;;;;;10.00;9.10;;;;;;;31.59;28.01;98645.94;5071851;28;39853;-83
2023/04/21 10:57:45;;;;;;;9.30;8.50;;;;;;;32.51;28.00;98642.63;5070932;28;41286;-84
2023/04/21 11:00:17;;;;;;;8.90;8.03;;;;;;;32.76;27.92;98634.94;5088793;28;43107;-81
2023/04/21 11:02:45;;;;;;;9.53;8.63;;;;;;;32.54;28.42;98626.50;5089179;28;42494;-80
2023/04/21 11:05:13;;;;;;;10.37;9.47;;;;;;;32.12;27.40;98634.91;5093268;28;40958;-82
2023/04/21 11:07:40;;;;;;;8.93;8.13;;;;;;;32.83;28.10;98614.50;5091193;28;42115;-82
2023/04/21 11:10:10;;;;;;;8.70;7.90;;;;;;;33.85;26.12;98627.31;5093095;28;43408;-80
2023/04/21 11:12:41;;;;;;;8.37;7.67;;;;;;;34.59;25.89;98623.13;5108337;27;42310;-83
2023/04/21 11:15:12;;;;;;;8.13;7.43;;;;;;;34.59;25.05;98627.78;5053841;28;40306;-85
2023/04/21 11:17:42;;;;;;;9.93;9.10;;;;;;;33.51;25.53;98626.44;5088251;28;41756;-85
2023/04/21 11:20:10;;;;;;;10.27;9.27;;;;;;;32.02;26.41;98623.69;5092701;28;42642;-86
2023/04/21 11:22:38;;;;;;;8.97;8.17;;;;;;;30.92;27.74;98606.09;5090991;28;41461;-86
2023/04/21 11:25:16;;;;;;;10.43;9.43;;;;;;;30.81;27.81;98605.00;5092648;28;41111;-80
2023/04/21 11:27:53;;;;;;;8.80;7.90;;;;;;;30.57;27.98;98606.81;5090961;28;40652;-81